Terminal Aerodrome Forecast
Issued by NWS

Home | Current Version | Previous Version | Text Only | Print | Product List | Glossary On
Versions: 1 2 3 4 5 6 7 8 9 10 11 12
135
FTUS45 KVEF 291120
TAFBIH
TAF
KBIH 291120Z 2912/3012 33005KT P6SM SKC
     FM291600 VRB05KT P6SM SKC
     FM292000 17011KT P6SM SCT120
     FM300000 VRB06KT P6SM SCT120
     FM300600 32006KT P6SM FEW250=

USA.gov is the U.S. government's official web portal to all federal, state and local government web resources and services.